Nearby METAR Reports

 

KORH - Worcester, Massachusetts, USA
Distance from station: NW 4mi, 7km
Updated: Mon, 05-Dec-2022 4:54pm EST
Clear
Clear
 Wind from SSW
Wind: SSW 6 mph , 9 km/h
Temperature: 41°F , 5°C
Wind Chill: 37°F , 3°C
Dew Point: 30°F , -1°C
Humidity: 66%
Barometer: 30.28 inHg , 1025.4 hPa
Clouds: Clear
Visibility: 10 miles , 16 km
2022/12/05 21:54 KORH 052154Z 21005KT 10SM CLR 05/M01 A3028 RMK AO2 SLP265 T00501006
KBOS - Boston, Massachusetts, USA
Distance from station: ENE 42mi, 68km
Updated: Mon, 05-Dec-2022 4:54pm EST
Mostly cloudy
Mostly cloudy
 Wind from S
Wind: S 8 mph , 13 km/h
Temperature: 45°F , 7°C
Wind Chill: 41°F , 5°C
Dew Point: 34°F , 1°C
Humidity: 66%
Barometer: 30.32 inHg , 1026.8 hPa
Clouds: Mostly cloudy
Visibility: 10 miles , 16 km
Cloud details: Few Clouds 3400 ft
Mostly cloudy 25000 ft
2022/12/05 21:54 KBOS 052154Z 19007KT 10SM FEW034 BKN250 07/01 A3032 RMK AO2 SLP266 T00670006
 
KCQX - Chatham, Massachusetts, USA
Distance from station: SE 102mi, 164km
Updated: Mon, 05-Dec-2022 4:52pm EST
Clear
Clear
 Wind from S
Wind: S 5 mph , 7 km/h
Temperature: 45°F , 7°C
Wind Chill: 42°F , 6°C
Dew Point: 36°F , 2°C
Humidity: 71%
Barometer: 30.35 inHg , 1027.8 hPa
Clouds: Clear
Visibility: 10 miles , 16 km
2022/12/05 21:52 KCQX 052152Z AUTO 18004KT 10SM CLR 07/02 A3035 RMK AO2 SLP278 T00670017
KMVY - Marthas Vineyard, Massachusetts, USA
Distance from station: SE 84mi, 135km
Updated: Mon, 05-Dec-2022 4:53pm EST
Mostly cloudy
Mostly cloudy
 Wind from S
Wind: S 7 mph , 11 km/h
Temperature: 46°F , 8°C
Wind Chill: 42°F , 6°C
Dew Point: 36°F , 2°C
Humidity: 66%
Barometer: 30.33 inHg , 1027.1 hPa
Clouds: Mostly cloudy
Visibility: 10 miles , 16 km
Cloud details: Mostly cloudy 3000 ft
2022/12/05 21:53 KMVY 052153Z 18006KT 10SM BKN030 08/02 A3033 RMK AO2 SLP269 T00780022
 
KPVC - Provincetown, Massachusetts, USA
Distance from station: NNW 85mi, 136km
Updated: Mon, 05-Dec-2022 4:56pm EST
Clear
Clear
 Wind from S
Wind: S 10 mph , 17 km/h
Temperature: 45°F , 7°C
Wind Chill: 40°F , 4°C
Dew Point: 36°F , 2°C
Humidity: 71%
Barometer: 30.34 inHg , 1027.4 hPa
Clouds: Clear
Visibility: 10 miles , 16 km
2022/12/05 21:56 KPVC 052156Z AUTO 18009KT 10SM CLR 07/02 A3034 RMK AO2 SLP273 T00670022
KAQW - Savoy, Massachusetts, USA
Distance from station: NNW 66mi, 106km
Updated: Mon, 05-Dec-2022 4:52pm EST
Clear
Clear
 Wind from varies
Wind: varies 3 mph , 6 km/h
Temperature: 41°F , 5°C
Dew Point: 12°F , -11°C
Humidity: 31%
Barometer: 30.23 inHg , 1023.7 hPa
Clouds: Clear
Visibility: 10 miles , 16 km
2022/12/05 21:52 KAQW 052152Z AUTO VRB03KT 10SM CLR 05/M11 A3023 RMK AO2 SLP244 T00501111
 
KIZG - Fryeburg, Maine, USA
Distance from station: NNE 133mi, 214km
Updated: Mon, 05-Dec-2022 4:54pm EST
Clear
Clear
 Wind from S
Wind: S 3 mph , 6 km/h
Temperature: 32°F , 0°C
Dew Point: 21°F , -6°C
Humidity: 64%
Barometer: 30.27 inHg , 1025.1 hPa
Clouds: Clear
Visibility: 10 miles , 16 km
2022/12/05 21:54 KIZG 052154Z AUTO 19003KT 10SM CLR 00/M06 A3027 RMK AO2 SLP259 T00001061
KMWN - Mt Washington, New Hampshire, USA
Distance from station: NNE 146mi, 234km
Updated: Mon, 05-Dec-2022 4:48pm EST
Overcast
Overcast
 Wind from WSW
Wind: WSW 37 mph , 59 km/h, Gust: 51 mph , 81 km/h
Temperature: 19°F , -7°C
Wind Chill: -2°F , -19°C
Dew Point: 7°F , -14°C
Humidity: 58%
Clouds: Overcast
Visibility: 120 miles , 192 km
Cloud details: Mostly cloudy 8000 ft
Overcast 18000 ft
2022/12/05 21:48 KMWN 052148Z 24032G44KT 120SM BKN080 OVC180 M07/M14 RMK
 
KBML - Berlin, New Hampshire, USA
Distance from station: NNE 160mi, 257km
Updated: Mon, 05-Dec-2022 4:52pm EST
Clear
Clear
 Wind from SE
Wind: SE 7 mph , 11 km/h
Temperature: 34°F , 1°C
Wind Chill: 28°F , -2°C
Dew Point: 18°F , -8°C
Humidity: 51%
Barometer: 30.19 inHg , 1022.4 hPa
Clouds: Clear
Visibility: 10 miles , 16 km
2022/12/05 21:52 KBML 052152Z AUTO 14006KT 10SM CLR 01/M08 A3019 RMK AO2 SLP241 T00061078